Time;durP1;ratioP1;P1;durP2;ratioP2;P2;SDS_P1;SDS_P2;PMS_P1;PMS_P2;Temp;Humidity;BMP_temperature;BMP_pressure;BME280_temperature;BME280_humidity;BME280_pressure;Samples;Min_cycle;Max_cycle;Signal;HPM_P1;HPM_P2
2021/08/01 00:02:03;;;;;;;;;;;15.50;99.90;;;;;;5094752;28;19916;-78
2021/08/01 00:04:30;;;;;;;;;;;15.50;99.90;;;;;;5094329;28;19950;-79
2021/08/01 00:06:55;;;;;;;;;;;15.50;99.90;;;;;;5096633;28;19985;-79
2021/08/01 00:09:21;;;;;;;;;;;15.50;99.90;;;;;;5097381;28;20353;-79
2021/08/01 00:11:46;;;;;;;;;;;15.50;99.90;;;;;;5094364;28;19919;-79
2021/08/01 00:14:12;;;;;;;;;;;15.50;99.90;;;;;;5094605;28;19922;-80
2021/08/01 00:16:38;;;;;;;;;;;15.40;99.90;;;;;;5095523;28;19923;-78
2021/08/01 00:19:03;;;;;;;;;;;15.50;99.90;;;;;;5134054;27;19919;-79
2021/08/01 00:21:31;;;;;;;;;;;15.40;99.90;;;;;;5140460;27;20299;-80
2021/08/01 00:23:56;;;;;;;;;;;15.40;99.90;;;;;;5096028;28;19916;-79
2021/08/01 00:26:22;;;;;;;;;;;15.40;99.90;;;;;;5095747;28;19965;-79
2021/08/01 00:28:48;;;;;;;;;;;15.50;99.90;;;;;;5101005;28;19994;-80
2021/08/01 00:31:13;;;;;;;;;;;15.40;99.90;;;;;;5096809;28;19925;-79
2021/08/01 00:33:39;;;;;;;;;;;15.40;99.90;;;;;;5096693;28;19912;-80
2021/08/01 00:36:04;;;;;;;;;;;15.40;99.90;;;;;;5103850;28;20006;-80
2021/08/01 00:38:30;;;;;;;;;;;15.50;99.90;;;;;;5094871;28;19912;-80
2021/08/01 00:40:55;;;;;;;;;;;15.50;99.90;;;;;;5100522;28;19912;-79
2021/08/01 00:43:21;;;;;;;;;;;15.50;99.90;;;;;;5095360;28;19916;-78
2021/08/01 00:45:47;;;;;;;;;;;15.50;99.90;;;;;;5095083;28;19962;-79
2021/08/01 00:48:13;;;;;;;;;;;15.50;99.90;;;;;;5087241;28;20333;-80
2021/08/01 00:50:40;;;;;;;;;;;15.50;99.90;;;;;;5095663;28;19916;-79
2021/08/01 00:53:06;;;;;;;;;;;15.50;99.90;;;;;;5095066;28;20346;-80
2021/08/01 00:55:32;;;;;;;;;;;15.50;99.90;;;;;;5096104;28;19957;-79
2021/08/01 00:57:57;;;;;;;;;;;15.50;99.90;;;;;;5087878;28;20024;-79
2021/08/01 01:02:55;;;;;;;;;;;15.50;99.90;;;;;;5095351;28;19908;-81
2021/08/01 01:05:25;;;;;;;;;;;15.50;99.90;;;;;;5092146;28;20243;-79
2021/08/01 01:07:58;;;;;;;;;;;15.50;99.90;;;;;;5088036;28;20001;-80
2021/08/01 01:10:32;;;;;;;;;;;15.60;99.90;;;;;;5095737;28;19912;-82
2021/08/01 01:13:04;;;;;;;;;;;15.60;99.90;;;;;;5095665;28;20223;-80
2021/08/01 01:15:32;;;;;;;;;;;15.60;99.90;;;;;;5092956;28;19916;-79
2021/08/01 01:17:59;;;;;;;;;;;15.60;99.90;;;;;;5089996;28;19916;-79
2021/08/01 01:20:30;;;;;;;;;;;15.60;99.90;;;;;;5089482;28;19951;-79
2021/08/01 01:23:02;;;;;;;;;;;15.50;99.90;;;;;;5095435;28;20221;-80
2021/08/01 01:25:49;;;;;;;;;;;15.50;99.90;;;;;;5106825;28;20082;-79
2021/08/01 01:28:22;;;;;;;;;;;15.50;99.90;;;;;;5096211;28;19912;-79
2021/08/01 01:31:04;;;;;;;;;;;15.50;99.90;;;;;;5088263;28;20382;-79
2021/08/01 01:33:30;;;;;;;;;;;15.50;99.90;;;;;;5095175;28;19922;-80
2021/08/01 01:35:57;;;;;;;;;;;15.50;99.90;;;;;;5093955;28;19916;-79
2021/08/01 01:38:24;;;;;;;;;;;15.50;99.90;;;;;;5094058;28;19922;-81
2021/08/01 01:40:53;;;;;;;;;;;15.60;99.90;;;;;;5096147;28;20229;-81
2021/08/01 01:43:21;;;;;;;;;;;15.60;99.90;;;;;;5095023;28;19916;-81
2021/08/01 01:45:47;;;;;;;;;;;15.60;99.90;;;;;;5091922;28;19916;-79
2021/08/01 01:48:12;;;;;;;;;;;15.50;99.90;;;;;;5094769;28;19920;-82
2021/08/01 01:50:38;;;;;;;;;;;15.50;99.90;;;;;;5094860;28;20285;-79
2021/08/01 01:53:04;;;;;;;;;;;15.50;99.90;;;;;;5095716;28;19916;-78
2021/08/01 01:55:31;;;;;;;;;;;15.50;99.90;;;;;;5094736;28;19920;-79
2021/08/01 01:57:58;;;;;;;;;;;15.50;99.90;;;;;;5083918;28;20122;-81
2021/08/01 02:00:24;;;;;;;;;;;15.60;99.90;;;;;;5093084;28;19991;-79
2021/08/01 02:02:50;;;;;;;;;;;15.60;99.90;;;;;;5092393;28;19977;-81
2021/08/01 02:05:15;;;;;;;;;;;15.60;99.90;;;;;;5091714;28;19955;-80
2021/08/01 02:07:41;;;;;;;;;;;15.60;99.90;;;;;;5090681;28;19973;-80
2021/08/01 02:10:25;;;;;;;;;;;15.60;99.90;;;;;;5095394;28;19966;-81
2021/08/01 02:12:52;;;;;;;;;;;15.60;99.90;;;;;;5095366;28;19994;-81
2021/08/01 02:15:19;;;;;;;;;;;15.60;99.90;;;;;;5093562;28;19920;-78
2021/08/01 02:17:51;;;;;;;;;;;15.60;99.90;;;;;;5094918;28;19926;-79
2021/08/01 02:20:19;;;;;;;;;;;15.60;99.90;;;;;;5090492;28;19913;-80
2021/08/01 02:22:45;;;;;;;;;;;15.60;99.90;;;;;;5095500;28;19912;-81
2021/08/01 02:25:12;;;;;;;;;;;15.60;99.90;;;;;;5093782;28;19950;-81
2021/08/01 02:27:38;;;;;;;;;;;15.60;99.90;;;;;;5084599;28;20287;-79
2021/08/01 02:30:04;;;;;;;;;;;15.60;99.90;;;;;;5094290;28;19938;-79
2021/08/01 02:32:30;;;;;;;;;;;15.60;99.90;;;;;;5101533;28;19920;-81
2021/08/01 02:34:57;;;;;;;;;;;15.60;99.90;;;;;;5094146;28;19922;-79
2021/08/01 02:37:23;;;;;;;;;;;15.50;99.90;;;;;;5093299;28;19916;-79
2021/08/01 02:39:49;;;;;;;;;;;15.50;99.90;;;;;;5095115;28;19952;-80
2021/08/01 02:42:20;;;;;;;;;;;15.60;99.90;;;;;;5091536;28;20007;-80
2021/08/01 02:44:45;;;;;;;;;;;15.60;99.90;;;;;;5089589;28;19971;-81
2021/08/01 02:47:13;;;;;;;;;;;15.50;99.90;;;;;;5092710;28;19947;-79
2021/08/01 02:49:42;;;;;;;;;;;15.60;99.90;;;;;;5094001;28;19920;-79
2021/08/01 02:52:10;;;;;;;;;;;15.60;99.90;;;;;;5093839;28;19961;-80
2021/08/01 02:54:38;;;;;;;;;;;15.60;99.90;;;;;;5091252;28;19916;-79
2021/08/01 02:57:04;;;;;;;;;;;15.60;99.90;;;;;;5091418;28;19916;-78
2021/08/01 02:59:31;;;;;;;;;;;15.60;99.90;;;;;;5098894;28;20290;-80
2021/08/01 03:01:57;;;;;;;;;;;15.60;99.90;;;;;;5099018;28;19908;-81
2021/08/01 03:04:24;;;;;;;;;;;15.50;99.90;;;;;;5092738;28;19931;-79
2021/08/01 03:06:50;;;;;;;;;;;15.60;99.90;;;;;;5094760;28;19999;-81
2021/08/01 03:09:15;;;;;;;;;;;15.60;99.90;;;;;;5094107;28;19999;-79
2021/08/01 03:11:41;;;;;;;;;;;15.50;99.90;;;;;;5097945;28;19919;-79
2021/08/01 03:14:06;;;;;;;;;;;15.50;99.90;;;;;;5096343;28;19912;-84
2021/08/01 03:16:32;;;;;;;;;;;15.50;99.90;;;;;;5098700;28;19912;-83
2021/08/01 03:18:57;;;;;;;;;;;15.50;99.90;;;;;;5098065;28;19916;-80
2021/08/01 03:21:23;;;;;;;;;;;15.50;99.90;;;;;;5098452;28;20241;-79
2021/08/01 03:23:51;;;;;;;;;;;15.60;99.90;;;;;;5098456;28;19912;-83
2021/08/01 03:26:16;;;;;;;;;;;15.60;99.90;;;;;;5096702;28;19912;-82
2021/08/01 03:28:42;;;;;;;;;;;15.60;99.90;;;;;;5097957;28;20360;-83
2021/08/01 03:31:07;;;;;;;;;;;15.60;99.90;;;;;;5096559;28;19916;-80
2021/08/01 03:33:33;;;;;;;;;;;15.60;99.90;;;;;;5099617;28;19916;-80
2021/08/01 03:35:59;;;;;;;;;;;15.70;99.90;;;;;;5109026;28;19923;-80
2021/08/01 03:38:24;;;;;;;;;;;15.70;99.90;;;;;;5096123;28;19913;-80
2021/08/01 03:40:50;;;;;;;;;;;15.70;99.90;;;;;;5104826;28;19918;-81
2021/08/01 03:43:16;;;;;;;;;;;15.80;99.90;;;;;;5092594;28;20301;-80
2021/08/01 03:45:41;;;;;;;;;;;15.70;99.90;;;;;;5097735;28;19918;-81
2021/08/01 03:48:07;;;;;;;;;;;15.70;99.90;;;;;;5109177;28;19924;-80
2021/08/01 03:50:32;;;;;;;;;;;15.80;99.90;;;;;;5098899;28;19916;-81
2021/08/01 03:52:58;;;;;;;;;;;15.70;99.90;;;;;;5093746;28;19913;-81
2021/08/01 03:55:24;;;;;;;;;;;15.80;99.90;;;;;;5089524;28;19966;-80
2021/08/01 03:57:49;;;;;;;;;;;15.80;99.90;;;;;;5107522;28;19965;-80
2021/08/01 04:00:15;;;;;;;;;;;15.70;99.90;;;;;;5107106;28;19916;-80
2021/08/01 04:02:40;;;;;;;;;;;15.70;99.90;;;;;;5102011;28;20314;-80
2021/08/01 04:05:07;;;;;;;;;;;15.70;99.90;;;;;;5099796;28;19915;-81
2021/08/01 04:07:33;;;;;;;;;;;15.70;99.90;;;;;;5102884;28;19916;-79
2021/08/01 04:09:58;;;;;;;;;;;15.70;99.90;;;;;;5104725;28;20222;-81
2021/08/01 04:12:24;;;;;;;;;;;15.60;99.90;;;;;;5098353;28;19916;-80
2021/08/01 04:14:50;;;;;;;;;;;15.60;99.90;;;;;;5102911;28;19920;-80
2021/08/01 04:17:18;;;;;;;;;;;15.60;99.90;;;;;;5106396;28;20226;-80
2021/08/01 04:19:47;;;;;;;;;;;15.60;99.90;;;;;;5102333;28;19923;-81
2021/08/01 04:22:13;;;;;;;;;;;15.60;99.90;;;;;;5100217;28;20215;-81
2021/08/01 04:24:38;;;;;;;;;;;15.60;99.90;;;;;;5094669;28;20019;-80
2021/08/01 04:27:04;;;;;;;;;;;15.60;99.90;;;;;;5096254;28;19994;-79
2021/08/01 04:29:30;;;;;;;;;;;15.60;99.90;;;;;;5097584;28;19919;-81
2021/08/01 04:31:55;;;;;;;;;;;15.60;99.90;;;;;;5138831;27;19911;-81
2021/08/01 04:39:25;;;;;;;;;;;15.50;99.90;;;;;;5065778;28;20311;-82
2021/08/01 04:41:50;;;;;;;;;;;15.50;99.90;;;;;;5055361;28;19912;-82
2021/08/01 04:44:16;;;;;;;;;;;15.50;99.90;;;;;;5076881;28;19909;-83
2021/08/01 04:46:42;;;;;;;;;;;15.50;99.90;;;;;;5075164;28;19916;-80
2021/08/01 04:49:07;;;;;;;;;;;15.50;99.90;;;;;;5075651;28;19923;-82
2021/08/01 04:51:33;;;;;;;;;;;15.60;99.90;;;;;;5073971;28;20011;-82
2021/08/01 04:53:58;;;;;;;;;;;15.60;99.90;;;;;;5054402;28;20263;-83
2021/08/01 04:56:24;;;;;;;;;;;15.60;99.90;;;;;;5053332;28;19999;-83
2021/08/01 04:58:50;;;;;;;;;;;15.60;99.90;;;;;;5054584;28;19912;-83
2021/08/01 05:01:17;;;;;;;;;;;15.60;99.90;;;;;;5060409;28;19912;-82
2021/08/01 05:03:43;;;;;;;;;;;15.60;99.90;;;;;;5057552;28;19995;-82
2021/08/01 05:06:10;;;;;;;;;;;15.60;99.90;;;;;;5054202;28;20223;-83
2021/08/01 05:08:36;;;;;;;;;;;15.60;99.90;;;;;;5056261;28;19912;-82
2021/08/01 05:11:01;;;;;;;;;;;15.60;99.90;;;;;;5075573;28;20007;-81
2021/08/01 05:13:27;;;;;;;;;;;15.70;99.90;;;;;;5057071;28;19998;-82
2021/08/01 05:15:52;;;;;;;;;;;15.70;99.90;;;;;;5058111;28;19921;-82
2021/08/01 05:18:20;;;;;;;;;;;15.70;99.90;;;;;;5056528;28;19920;-82
2021/08/01 05:20:46;;;;;;;;;;;15.70;99.90;;;;;;5076260;28;19938;-82
2021/08/01 05:23:12;;;;;;;;;;;15.70;99.90;;;;;;5044935;28;19935;-82
2021/08/01 05:25:37;;;;;;;;;;;15.70;99.90;;;;;;5052961;28;19916;-81
2021/08/01 05:28:03;;;;;;;;;;;15.80;99.90;;;;;;5071693;28;19923;-83
2021/08/01 05:30:29;;;;;;;;;;;15.80;99.90;;;;;;5055747;28;19928;-79
2021/08/01 05:32:54;;;;;;;;;;;15.80;99.90;;;;;;5075027;28;20227;-79
2021/08/01 05:35:20;;;;;;;;;;;15.80;99.90;;;;;;5072308;28;19917;-79
2021/08/01 05:37:46;;;;;;;;;;;15.90;99.90;;;;;;5048352;28;20304;-79
2021/08/01 05:40:11;;;;;;;;;;;15.90;99.90;;;;;;5066391;28;19917;-78
2021/08/01 05:42:38;;;;;;;;;;;15.90;99.90;;;;;;5073856;28;20326;-79
2021/08/01 05:45:04;;;;;;;;;;;15.90;99.90;;;;;;5057597;28;20230;-80
2021/08/01 05:47:30;;;;;;;;;;;16.00;99.90;;;;;;5048800;28;19923;-79
2021/08/01 05:49:55;;;;;;;;;;;16.00;99.90;;;;;;5053887;28;19912;-78
2021/08/01 05:52:21;;;;;;;;;;;16.00;99.90;;;;;;5052568;28;20216;-79
2021/08/01 05:54:47;;;;;;;;;;;16.00;99.90;;;;;;5056912;28;19920;-80
2021/08/01 05:57:12;;;;;;;;;;;16.10;99.90;;;;;;5051562;28;19916;-80
2021/08/01 05:59:38;;;;;;;;;;;16.10;99.90;;;;;;5066654;28;20363;-80
2021/08/01 06:02:03;;;;;;;;;;;16.20;99.90;;;;;;5056606;28;19954;-79
2021/08/01 06:04:29;;;;;;;;;;;16.20;99.90;;;;;;5074047;28;19920;-79
2021/08/01 06:06:54;;;;;;;;;;;16.30;99.90;;;;;;5054369;28;19917;-79
2021/08/01 06:09:20;;;;;;;;;;;16.30;99.90;;;;;;5057099;28;20011;-80
2021/08/01 06:11:45;;;;;;;;;;;16.30;99.90;;;;;;5056940;28;19966;-79
2021/08/01 06:14:11;;;;;;;;;;;16.40;99.90;;;;;;5071564;28;20371;-80
2021/08/01 06:16:37;;;;;;;;;;;16.40;99.90;;;;;;5068360;28;20223;-80
2021/08/01 06:19:02;;;;;;;;;;;16.40;99.90;;;;;;5048057;28;20207;-80
2021/08/01 06:21:29;;;;;;;;;;;16.40;99.90;;;;;;5073674;28;20011;-80
2021/08/01 06:23:55;;;;;;;;;;;16.40;99.90;;;;;;5056176;28;19913;-80
2021/08/01 06:26:21;;;;;;;;;;;16.50;99.90;;;;;;5068398;28;19920;-81
2021/08/01 06:28:47;;;;;;;;;;;16.50;99.90;;;;;;5048786;28;19921;-80
2021/08/01 06:31:13;;;;;;;;;;;16.50;99.90;;;;;;5074189;28;20261;-81
2021/08/01 06:33:39;;;;;;;;;;;16.50;99.90;;;;;;5056422;28;19917;-80
2021/08/01 06:36:09;;;;;;;;;;;16.50;99.90;;;;;;5056033;28;19924;-80
2021/08/01 06:38:35;;;;;;;;;;;16.50;99.90;;;;;;5070392;28;19921;-81
2021/08/01 06:41:01;;;;;;;;;;;16.50;99.90;;;;;;5064640;28;20243;-79
2021/08/01 06:43:27;;;;;;;;;;;16.60;99.90;;;;;;5070265;28;19916;-82
2021/08/01 06:45:53;;;;;;;;;;;16.60;99.90;;;;;;5053440;28;19935;-79
2021/08/01 06:48:18;;;;;;;;;;;16.60;99.90;;;;;;5049809;28;19970;-82
2021/08/01 06:50:44;;;;;;;;;;;16.70;99.90;;;;;;5066509;28;19917;-80
2021/08/01 06:53:09;;;;;;;;;;;16.70;99.90;;;;;;5051395;28;19939;-78
2021/08/01 06:55:35;;;;;;;;;;;16.70;99.90;;;;;;5065945;28;19986;-80
2021/08/01 06:58:01;;;;;;;;;;;16.70;99.90;;;;;;5052810;28;20312;-85
2021/08/01 07:00:26;;;;;;;;;;;16.80;99.90;;;;;;5053920;28;19912;-81
2021/08/01 07:02:56;;;;;;;;;;;16.80;99.90;;;;;;5050199;28;19912;-78
2021/08/01 07:05:22;;;;;;;;;;;16.90;99.90;;;;;;5052422;28;19990;-81
2021/08/01 07:07:47;;;;;;;;;;;16.80;99.90;;;;;;5065548;28;19919;-82
2021/08/01 07:10:13;;;;;;;;;;;16.90;99.90;;;;;;5048393;28;19921;-80
2021/08/01 07:12:41;;;;;;;;;;;16.90;99.90;;;;;;5048466;28;20227;-79
2021/08/01 07:15:14;;;;;;;;;;;16.80;99.90;;;;;;5045043;28;19916;-86
2021/08/01 07:17:39;;;;;;;;;;;16.90;99.90;;;;;;5064117;28;19977;-80
2021/08/01 07:20:07;;;;;;;;;;;17.00;99.90;;;;;;5047676;28;20309;-80
2021/08/01 07:22:32;;;;;;;;;;;17.10;99.90;;;;;;5047145;28;19948;-80
2021/08/01 07:24:58;;;;;;;;;;;17.10;99.90;;;;;;5047162;28;19959;-79
2021/08/01 07:27:24;;;;;;;;;;;17.20;99.90;;;;;;5051515;28;19912;-81
2021/08/01 07:29:49;;;;;;;;;;;17.20;99.90;;;;;;5048765;28;19917;-79
2021/08/01 07:32:15;;;;;;;;;;;17.30;99.90;;;;;;5064973;28;20315;-81
2021/08/01 07:34:40;;;;;;;;;;;17.40;99.90;;;;;;5066289;28;19931;-81
2021/08/01 07:37:06;;;;;;;;;;;17.40;99.90;;;;;;5064576;28;19913;-79
2021/08/01 07:39:32;;;;;;;;;;;17.60;99.90;;;;;;5048602;28;19948;-79
2021/08/01 07:41:57;;;;;;;;;;;17.70;99.90;;;;;;5051765;28;19916;-82
2021/08/01 07:44:25;;;;;;;;;;;17.80;99.90;;;;;;5066355;28;19989;-82
2021/08/01 07:46:50;;;;;;;;;;;17.90;99.90;;;;;;5064806;28;19916;-81
2021/08/01 07:49:16;;;;;;;;;;;17.90;99.90;;;;;;5050277;28;20387;-81
2021/08/01 07:51:41;;;;;;;;;;;18.00;99.90;;;;;;5048683;28;19920;-80
2021/08/01 07:54:07;;;;;;;;;;;18.20;99.90;;;;;;5050393;28;19998;-80
2021/08/01 07:56:33;;;;;;;;;;;18.30;99.90;;;;;;5065646;28;19922;-81
2021/08/01 07:58:58;;;;;;;;;;;18.50;99.90;;;;;;5053270;28;19913;-79
2021/08/01 08:01:24;;;;;;;;;;;18.70;99.90;;;;;;5069737;28;19924;-80
2021/08/01 08:03:49;;;;;;;;;;;19.10;99.90;;;;;;5071973;28;20322;-80
2021/08/01 08:06:15;;;;;;;;;;;19.30;99.90;;;;;;5053605;28;19918;-80
2021/08/01 08:08:40;;;;;;;;;;;19.50;99.90;;;;;;5054332;28;19971;-82
2021/08/01 08:11:06;;;;;;;;;;;19.80;99.90;;;;;;5055743;28;19952;-80
2021/08/01 08:13:31;;;;;;;;;;;20.00;99.90;;;;;;5050128;28;19913;-80
2021/08/01 08:15:57;;;;;;;;;;;20.20;99.90;;;;;;5051433;28;19917;-80
2021/08/01 08:18:23;;;;;;;;;;;20.40;99.90;;;;;;5050923;28;19923;-81
2021/08/01 08:20:49;;;;;;;;;;;20.50;99.90;;;;;;5068628;28;20038;-78
2021/08/01 08:23:15;;;;;;;;;;;20.20;99.90;;;;;;5051115;28;20365;-77
2021/08/01 08:25:42;;;;;;;;;;;19.90;99.90;;;;;;5054182;28;19913;-84
2021/08/01 08:28:08;;;;;;;;;;;19.50;99.90;;;;;;5051847;28;19917;-82
2021/08/01 08:30:33;;;;;;;;;;;19.10;99.90;;;;;;5059228;28;19919;-81
2021/08/01 08:32:59;;;;;;;;;;;18.60;99.90;;;;;;5076427;28;19916;-78
2021/08/01 08:35:24;;;;;;;;;;;18.30;99.90;;;;;;5056518;28;19971;-79
2021/08/01 08:37:50;;;;;;;;;;;18.10;99.90;;;;;;5055389;28;20677;-78
2021/08/01 08:40:16;;;;;;;;;;;17.90;99.90;;;;;;5053275;28;19920;-79
2021/08/01 08:42:43;;;;;;;;;;;17.70;99.90;;;;;;5066134;28;19919;-80
2021/08/01 08:45:09;;;;;;;;;;;17.40;99.90;;;;;;5051458;28;20192;-84
2021/08/01 08:47:37;;;;;;;;;;;17.30;99.90;;;;;;5070731;28;20066;-81
2021/08/01 08:50:03;;;;;;;;;;;17.10;99.90;;;;;;5050629;28;20207;-80
2021/08/01 08:52:30;;;;;;;;;;;16.90;99.90;;;;;;5050552;28;20263;-77
2021/08/01 08:54:56;;;;;;;;;;;16.80;99.90;;;;;;5052172;28;19986;-77
2021/08/01 08:57:25;;;;;;;;;;;16.60;99.90;;;;;;5067658;28;20007;-77
2021/08/01 08:59:53;;;;;;;;;;;16.50;99.90;;;;;;5050331;28;19919;-78
2021/08/01 09:02:19;;;;;;;;;;;16.40;99.90;;;;;;5071146;28;19927;-76
2021/08/01 09:04:45;;;;;;;;;;;16.30;99.90;;;;;;5052191;28;19913;-76
2021/08/01 09:07:11;;;;;;;;;;;16.30;99.90;;;;;;5068970;28;20210;-78
2021/08/01 09:09:37;;;;;;;;;;;16.00;99.90;;;;;;5068529;28;19921;-81
2021/08/01 09:12:02;;;;;;;;;;;15.80;99.90;;;;;;5050341;28;19925;-79
2021/08/01 09:14:28;;;;;;;;;;;15.60;99.90;;;;;;5051897;28;20311;-78
2021/08/01 09:16:53;;;;;;;;;;;15.50;99.90;;;;;;5047672;28;20257;-78
2021/08/01 09:19:30;;;;;;;;;;;15.50;99.90;;;;;;5052776;28;20015;-77
2021/08/01 09:22:10;;;;;;;;;;;15.50;99.90;;;;;;5071085;28;20370;-77
2021/08/01 09:24:35;;;;;;;;;;;15.60;99.90;;;;;;5070571;28;19922;-76
2021/08/01 09:27:03;;;;;;;;;;;15.60;99.90;;;;;;5066279;28;20004;-76
2021/08/01 09:29:30;;;;;;;;;;;15.70;99.90;;;;;;5065560;28;19967;-76
2021/08/01 09:31:59;;;;;;;;;;;15.60;99.90;;;;;;5050808;28;19938;-77
2021/08/01 09:34:26;;;;;;;;;;;15.70;99.90;;;;;;5067175;28;20008;-77
2021/08/01 09:36:54;;;;;;;;;;;15.70;99.90;;;;;;5048559;28;19916;-76
2021/08/01 09:39:21;;;;;;;;;;;15.80;99.90;;;;;;5065949;28;20375;-77
2021/08/01 09:41:50;;;;;;;;;;;15.80;99.90;;;;;;5050960;28;19927;-76
2021/08/01 09:44:18;;;;;;;;;;;15.90;99.90;;;;;;5067378;28;20215;-76
2021/08/01 09:46:49;;;;;;;;;;;16.00;99.90;;;;;;5066296;28;19955;-75
2021/08/01 09:49:19;;;;;;;;;;;16.20;99.90;;;;;;5049507;28;19966;-76
2021/08/01 09:51:52;;;;;;;;;;;16.20;99.90;;;;;;5049994;28;20254;-76
2021/08/01 09:54:18;;;;;;;;;;;16.30;99.90;;;;;;5066226;28;19958;-77
2021/08/01 09:56:56;;;;;;;;;;;16.40;99.90;;;;;;5066580;28;19912;-77
2021/08/01 09:59:24;;;;;;;;;;;16.40;99.90;;;;;;5050575;28;19962;-77
2021/08/01 10:01:50;;;;;;;;;;;16.50;99.90;;;;;;5065054;28;19921;-77
2021/08/01 10:04:26;;;;;;;;;;;16.60;99.90;;;;;;5050652;28;19999;-77
2021/08/01 10:07:10;;;;;;;;;;;16.70;99.90;;;;;;5065581;28;19916;-77
2021/08/01 10:09:36;;;;;;;;;;;16.80;99.90;;;;;;5049507;28;19912;-81
2021/08/01 10:12:03;;;;;;;;;;;17.00;99.90;;;;;;5066950;28;19973;-83
2021/08/01 10:14:29;;;;;;;;;;;17.10;99.90;;;;;;5049133;28;20007;-78
2021/08/01 10:16:55;;;;;;;;;;;17.10;99.90;;;;;;5050547;28;20004;-79
2021/08/01 10:19:21;;;;;;;;;;;17.20;99.90;;;;;;5048635;28;19919;-78
2021/08/01 10:21:49;;;;;;;;;;;17.20;99.90;;;;;;5049149;28;20002;-80
2021/08/01 10:24:16;;;;;;;;;;;17.40;99.90;;;;;;5050602;28;20294;-82
2021/08/01 10:26:47;;;;;;;;;;;17.40;99.90;;;;;;5049788;28;19924;-81
2021/08/01 10:29:13;;;;;;;;;;;17.30;99.90;;;;;;5062880;28;19923;-82
2021/08/01 10:31:42;;;;;;;;;;;17.20;99.90;;;;;;5066845;28;20153;-83
2021/08/01 10:34:15;;;;;;;;;;;17.00;99.90;;;;;;5067309;28;19916;-80
2021/08/01 10:36:46;;;;;;;;;;;16.90;99.90;;;;;;5048205;28;19927;-81
2021/08/01 10:39:13;;;;;;;;;;;16.80;99.90;;;;;;5049177;28;19932;-79
2021/08/01 10:41:39;;;;;;;;;;;16.80;99.90;;;;;;5065863;28;20225;-77
2021/08/01 10:44:08;;;;;;;;;;;16.90;99.90;;;;;;5049519;28;19919;-78
2021/08/01 10:46:34;;;;;;;;;;;17.00;99.90;;;;;;5066692;28;20266;-78
2021/08/01 10:49:01;;;;;;;;;;;17.20;99.90;;;;;;5063484;28;19923;-81
2021/08/01 10:51:28;;;;;;;;;;;17.40;99.90;;;;;;5049249;28;19967;-80
2021/08/01 10:54:13;;;;;;;;;;;17.40;99.90;;;;;;5052837;28;20018;-80
2021/08/01 10:56:39;;;;;;;;;;;17.80;99.90;;;;;;5043230;28;19923;-80
2021/08/01 10:59:05;;;;;;;;;;;17.90;99.90;;;;;;5066577;28;20249;-84
2021/08/01 11:01:30;;;;;;;;;;;18.00;99.90;;;;;;5066762;28;20293;-81
2021/08/01 11:04:15;;;;;;;;;;;17.80;99.90;;;;;;5048961;28;19912;-81
2021/08/01 11:06:42;;;;;;;;;;;17.90;99.90;;;;;;5045731;28;19912;-83
2021/08/01 11:09:09;;;;;;;;;;;18.00;99.90;;;;;;5049101;28;19920;-82
2021/08/01 11:11:34;;;;;;;;;;;18.10;99.90;;;;;;5066717;28;19919;-81
2021/08/01 11:14:00;;;;;;;;;;;18.20;99.90;;;;;;5064005;28;19920;-82
2021/08/01 11:16:31;;;;;;;;;;;18.20;99.90;;;;;;5046873;28;20293;-83
2021/08/01 11:18:57;;;;;;;;;;;18.20;99.90;;;;;;5062953;28;20323;-81
2021/08/01 11:21:39;;;;;;;;;;;18.20;99.90;;;;;;5047017;28;19920;-80
2021/08/01 11:24:11;;;;;;;;;;;18.10;99.90;;;;;;5066229;28;19921;-82
2021/08/01 11:26:57;;;;;;;;;;;18.10;99.90;;;;;;5065048;28;19913;-80
2021/08/01 11:29:22;;;;;;;;;;;18.10;99.90;;;;;;5049339;28;19999;-81
2021/08/01 11:32:05;;;;;;;;;;;18.10;99.90;;;;;;5063147;28;20268;-80
2021/08/01 11:34:30;;;;;;;;;;;18.00;99.90;;;;;;5048303;28;19917;-83
2021/08/01 11:37:16;;;;;;;;;;;18.00;99.90;;;;;;5052430;28;19913;-82
2021/08/01 11:39:55;;;;;;;;;;;17.90;99.90;;;;;;5052908;28;19921;-82
2021/08/01 11:42:22;;;;;;;;;;;17.90;99.90;;;;;;5064264;28;20298;-81
2021/08/01 11:44:54;;;;;;;;;;;17.90;99.90;;;;;;5069632;28;19919;-81
2021/08/01 11:47:20;;;;;;;;;;;18.00;99.90;;;;;;5070356;28;19917;-80
2021/08/01 11:49:47;;;;;;;;;;;17.90;99.90;;;;;;5071332;28;20311;-82
2021/08/01 11:52:19;;;;;;;;;;;18.00;99.90;;;;;;5052420;28;19917;-81
2021/08/01 11:54:45;;;;;;;;;;;18.10;99.90;;;;;;5065807;28;19992;-82
2021/08/01 11:57:12;;;;;;;;;;;18.20;99.90;;;;;;5070312;28;19934;-80
2021/08/01 11:59:38;;;;;;;;;;;18.40;99.90;;;;;;5067805;28;19978;-80
2021/08/01 12:02:14;;;;;;;;;;;18.50;99.90;;;;;;5054431;28;19916;-86
2021/08/01 12:04:51;;;;;;;;;;;18.70;99.90;;;;;;5069940;28;19916;-90
2021/08/01 12:07:17;;;;;;;;;;;19.10;99.90;;;;;;5052581;28;19920;-80
2021/08/01 12:09:42;;;;;;;;;;;19.10;99.90;;;;;;5053087;28;19939;-84
2021/08/01 12:12:08;;;;;;;;;;;19.00;99.90;;;;;;5055388;28;19916;-82
2021/08/01 12:14:34;;;;;;;;;;;18.70;99.90;;;;;;5052287;28;19917;-79
2021/08/01 12:17:08;;;;;;;;;;;18.50;99.90;;;;;;5050674;28;19924;-80
2021/08/01 12:19:37;;;;;;;;;;;18.40;99.90;;;;;;5067000;28;19966;-78
2021/08/01 12:22:09;;;;;;;;;;;18.40;99.90;;;;;;5049763;28;19924;-82
2021/08/01 12:24:42;;;;;;;;;;;18.20;99.90;;;;;;5071258;28;19916;-87
2021/08/01 12:27:12;;;;;;;;;;;18.00;99.90;;;;;;5056137;28;19921;-86
2021/08/01 12:29:42;;;;;;;;;;;17.90;99.90;;;;;;5053161;28;20231;-80
2021/08/01 12:32:25;;;;;;;;;;;17.60;99.90;;;;;;5064449;28;19948;-79
2021/08/01 12:34:52;;;;;;;;;;;17.50;99.90;;;;;;5048446;28;19916;-87
2021/08/01 12:37:18;;;;;;;;;;;17.30;99.90;;;;;;5069938;28;20575;-80
2021/08/01 12:39:48;;;;;;;;;;;17.20;99.90;;;;;;5068086;28;20304;-79
2021/08/01 12:42:14;;;;;;;;;;;17.10;99.90;;;;;;5049904;28;20003;-91
2021/08/01 12:44:53;;;;;;;;;;;17.10;99.90;;;;;;5061075;28;20024;-80
2021/08/01 12:47:19;;;;;;;;;;;17.20;99.90;;;;;;5069597;28;19919;-86
2021/08/01 12:49:45;;;;;;;;;;;17.20;99.90;;;;;;5054175;28;19913;-78
2021/08/01 12:52:10;;;;;;;;;;;17.20;99.90;;;;;;5053242;28;19966;-78
2021/08/01 12:54:36;;;;;;;;;;;17.40;99.90;;;;;;5069003;28;19921;-77
2021/08/01 12:57:03;;;;;;;;;;;17.50;99.90;;;;;;5069402;28;19931;-77
2021/08/01 12:59:28;;;;;;;;;;;17.50;99.90;;;;;;5070241;28;19916;-77
2021/08/01 13:01:54;;;;;;;;;;;17.50;99.90;;;;;;5053542;28;19913;-81
2021/08/01 13:04:21;;;;;;;;;;;17.60;99.90;;;;;;5055098;28;20046;-83
2021/08/01 13:06:46;;;;;;;;;;;17.70;99.90;;;;;;5069192;28;20369;-81
2021/08/01 13:09:19;;;;;;;;;;;17.80;99.90;;;;;;5053276;28;19916;-85
2021/08/01 13:11:45;;;;;;;;;;;17.70;99.90;;;;;;5070132;28;20303;-85
2021/08/01 13:14:11;;;;;;;;;;;17.70;99.90;;;;;;5071817;28;20299;-78
2021/08/01 13:16:50;;;;;;;;;;;17.70;99.90;;;;;;5053696;28;19913;-78
2021/08/01 13:19:17;;;;;;;;;;;17.60;99.90;;;;;;5057765;28;19966;-85
2021/08/01 13:22:01;;;;;;;;;;;17.50;99.90;;;;;;5053372;28;20334;-85
2021/08/01 13:24:31;;;;;;;;;;;17.40;99.90;;;;;;5068499;28;19913;-83
2021/08/01 13:27:01;;;;;;;;;;;17.30;99.90;;;;;;5049615;28;19923;-76
2021/08/01 13:29:27;;;;;;;;;;;17.40;99.90;;;;;;5067466;28;20012;-78
2021/08/01 13:31:53;;;;;;;;;;;17.40;99.90;;;;;;5070812;28;19913;-83
2021/08/01 13:34:20;;;;;;;;;;;17.30;99.90;;;;;;5052948;28;19923;-84
2021/08/01 13:36:47;;;;;;;;;;;17.50;99.90;;;;;;5048482;28;19912;-80
2021/08/01 13:39:14;;;;;;;;;;;17.60;99.90;;;;;;5053085;28;19925;-77
2021/08/01 13:41:41;;;;;;;;;;;17.60;99.90;;;;;;5047680;28;20261;-84
2021/08/01 13:44:10;;;;;;;;;;;17.60;99.90;;;;;;5070003;28;19921;-79
2021/08/01 13:46:36;;;;;;;;;;;17.70;99.90;;;;;;5052381;28;19912;-89
2021/08/01 13:49:03;;;;;;;;;;;17.70;99.90;;;;;;5053659;28;19924;-80
2021/08/01 13:51:29;;;;;;;;;;;17.70;99.90;;;;;;5064798;28;20227;-87
2021/08/01 13:53:55;;;;;;;;;;;17.70;99.90;;;;;;5052421;28;20019;-82
2021/08/01 13:56:21;;;;;;;;;;;17.80;99.90;;;;;;5068933;28;20007;-85
2021/08/01 13:58:46;;;;;;;;;;;17.80;99.90;;;;;;5050766;28;19927;-80
2021/08/01 14:01:12;;;;;;;;;;;18.00;99.90;;;;;;5056377;28;20311;-77
2021/08/01 14:03:38;;;;;;;;;;;18.20;99.90;;;;;;5054487;28;19916;-81
2021/08/01 14:06:04;;;;;;;;;;;18.20;99.90;;;;;;5050586;28;19921;-78
2021/08/01 14:08:29;;;;;;;;;;;18.30;99.90;;;;;;5073723;28;19939;-84
2021/08/01 14:10:56;;;;;;;;;;;18.30;99.90;;;;;;5048476;28;19920;-90
2021/08/01 14:13:22;;;;;;;;;;;18.40;99.90;;;;;;5054021;28;19958;-84
2021/08/01 14:15:48;;;;;;;;;;;18.40;99.90;;;;;;5048605;28;19950;-90
2021/08/01 14:18:13;;;;;;;;;;;18.40;99.90;;;;;;5067185;28;20106;-86
2021/08/01 14:20:39;;;;;;;;;;;18.40;99.90;;;;;;5068021;28;19975;-84
2021/08/01 14:23:04;;;;;;;;;;;18.40;99.90;;;;;;5049760;28;19912;-81
2021/08/01 14:25:32;;;;;;;;;;;18.40;99.90;;;;;;5050574;28;19916;-91